Time;durP1;ratioP1;P1;durP2;ratioP2;P2;SDS_P1;SDS_P2;PMS_P1;PMS_P2;Temp;Humidity;BMP_temperature;BMP_pressure;BME280_temperature;BME280_humidity;BME280_pressure;Samples;Min_cycle;Max_cycle;Signal;HPM_P1;HPM_P2
2021/04/12 00:00:13;;;;;;;6.40;0.95;;;;;;;;;;5081705;28;20073;-70
2021/04/12 00:02:50;;;;;;;7.28;0.85;;;;;;;;;;5090407;28;20052;-70
2021/04/12 00:05:31;;;;;;;8.73;1.67;;;;;;;;;;5082453;28;20032;-70
2021/04/12 00:08:12;;;;;;;4.88;0.85;;;;;;;;;;5089138;28;20036;-70
2021/04/12 00:10:57;;;;;;;8.52;0.98;;;;;;;;;;5087408;28;20032;-70
2021/04/12 00:13:44;;;;;;;10.57;1.55;;;;;;;;;;5089923;28;20031;-68
2021/04/12 00:16:13;;;;;;;4.15;0.50;;;;;;;;;;5081090;28;20502;-67
2021/04/12 00:18:58;;;;;;;13.82;1.13;;;;;;;;;;5091176;28;20023;-67
2021/04/12 00:21:27;;;;;;;8.07;0.70;;;;;;;;;;5083794;28;20088;-67
2021/04/12 00:24:04;;;;;;;6.72;0.90;;;;;;;;;;5088718;28;20046;-68
2021/04/12 00:26:40;;;;;;;7.20;0.73;;;;;;;;;;5091055;28;20502;-67
2021/04/12 00:29:08;;;;;;;4.10;0.73;;;;;;;;;;5078296;28;20731;-68
2021/04/12 00:31:38;;;;;;;7.15;0.60;;;;;;;;;;5088853;28;20020;-67
2021/04/12 00:34:04;;;;;;;4.10;0.55;;;;;;;;;;5087270;28;20024;-68
2021/04/12 00:36:41;;;;;;;6.38;0.80;;;;;;;;;;5071376;28;20051;-68
2021/04/12 00:39:11;;;;;;;3.92;0.70;;;;;;;;;;5087696;28;20046;-67
2021/04/12 00:41:55;;;;;;;5.07;0.90;;;;;;;;;;5080256;28;20123;-67
2021/04/12 00:44:32;;;;;;;6.63;1.08;;;;;;;;;;5083716;28;20028;-69
2021/04/12 00:47:03;;;;;;;2.60;0.77;;;;;;;;;;5078993;28;20051;-68
2021/04/12 00:49:29;;;;;;;;;;;;;;;;;;5088033;28;20016;-68
2021/04/12 00:52:22;;;;;;;8.85;0.88;;;;;;;;;;5088355;28;19908;-68
2021/04/12 00:54:52;;;;;;;8.65;0.80;;;;;;;;;;5062358;28;20032;-68
2021/04/12 00:57:30;;;;;;;3.88;0.95;;;;;;;;;;5088294;28;20024;-67
2021/04/12 01:00:05;;;;;;;4.63;0.80;;;;;;;;;;5078329;28;20134;-68
2021/04/12 01:02:31;;;;;;;8.18;1.17;;;;;;;;;;5083829;28;20525;-68
2021/04/12 01:05:01;;;;;;;8.95;1.05;;;;;;;;;;5086688;28;20040;-67
2021/04/12 01:07:30;;;;;;;8.65;1.23;;;;;;;;;;5085243;28;20022;-68
2021/04/12 01:09:59;;;;;;;6.35;0.98;;;;;;;;;;5086332;28;20454;-67
2021/04/12 01:12:34;;;;;;;5.18;1.08;;;;;;;;;;5077134;28;20017;-68
2021/04/12 01:15:16;;;;;;;5.30;1.40;;;;;;;;;;5081304;28;20024;-67
2021/04/12 01:17:58;;;;;;;7.13;1.17;;;;;;;;;;5079812;28;20024;-67
2021/04/12 01:20:24;;;;;;;5.15;1.27;;;;;;;;;;5084155;28;20086;-67
2021/04/12 01:23:09;;;;;;;4.25;1.05;;;;;;;;;;5089203;28;20024;-68
2021/04/12 01:25:54;;;;;;;4.68;0.93;;;;;;;;;;5084949;28;20039;-68
2021/04/12 01:28:38;;;;;;;5.32;0.90;;;;;;;;;;5076538;28;20059;-70
2021/04/12 01:31:16;;;;;;;7.18;1.10;;;;;;;;;;5080835;28;20028;-71
2021/04/12 01:34:01;;;;;;;6.70;0.95;;;;;;;;;;5081753;28;20016;-71
2021/04/12 01:36:43;;;;;;;8.82;1.10;;;;;;;;;;5088735;28;20024;-71
2021/04/12 01:39:12;;;;;;;3.80;0.98;;;;;;;;;;5087657;28;20032;-71
2021/04/12 01:41:51;;;;;;;11.10;1.40;;;;;;;;;;5084874;28;20024;-70
2021/04/12 01:44:17;;;;;;;7.35;1.02;;;;;;;;;;5087509;28;20081;-71
2021/04/12 01:46:50;;;;;;;9.25;1.35;;;;;;;;;;5086562;28;20028;-72
2021/04/12 01:49:22;;;;;;;10.40;1.00;;;;;;;;;;5086097;28;20111;-71
2021/04/12 01:52:04;;;;;;;7.70;0.93;;;;;;;;;;5092578;28;20018;-71
2021/04/12 01:54:52;;;;;;;12.27;1.20;;;;;;;;;;5090840;28;20019;-71
2021/04/12 01:57:37;;;;;;;6.93;1.05;;;;;;;;;;5093706;28;20024;-71
2021/04/12 02:00:18;;;;;;;5.95;0.93;;;;;;;;;;5090218;28;20031;-71
2021/04/12 02:02:56;;;;;;;5.07;1.40;;;;;;;;;;5092330;28;20030;-71
2021/04/12 02:05:25;;;;;;;3.72;0.90;;;;;;;;;;5092430;28;20504;-71
2021/04/12 02:08:10;;;;;;;6.00;0.70;;;;;;;;;;5093082;28;20028;-70
2021/04/12 02:10:42;;;;;;;6.90;1.00;;;;;;;;;;5087351;28;20072;-71
2021/04/12 02:13:11;;;;;;;8.60;1.63;;;;;;;;;;5084869;28;20016;-70
2021/04/12 02:15:43;;;;;;;11.60;1.10;;;;;;;;;;5088801;28;20036;-70
2021/04/12 02:18:28;;;;;;;7.97;1.02;;;;;;;;;;5086018;28;20027;-70
2021/04/12 02:20:58;;;;;;;11.05;1.45;;;;;;;;;;5084375;28;20123;-71
2021/04/12 02:23:49;;;;;;;9.77;1.83;;;;;;;;;;5079718;28;20023;-71
2021/04/12 02:26:32;;;;;;;9.90;2.25;;;;;;;;;;5092272;28;20111;-70
2021/04/12 02:29:05;;;;;;;7.15;1.02;;;;;;;;;;5089341;28;20123;-71
2021/04/12 02:31:38;;;;;;;8.18;1.10;;;;;;;;;;5081382;28;20099;-70
2021/04/12 02:34:08;;;;;;;12.73;1.23;;;;;;;;;;5081527;28;20024;-70
2021/04/12 02:37:13;;;;;;;6.57;1.17;;;;;;;;;;5088820;28;20063;-70
2021/04/12 02:39:49;;;;;;;10.00;1.73;;;;;;;;;;5016022;28;20108;-71
2021/04/12 02:42:34;;;;;;;7.30;1.40;;;;;;;;;;5040537;28;20044;-70
2021/04/12 02:45:19;;;;;;;6.03;0.88;;;;;;;;;;5060381;28;20029;-71
2021/04/12 02:47:58;;;;;;;8.95;1.13;;;;;;;;;;5088350;28;20020;-70
2021/04/12 02:50:27;;;;;;;3.35;0.80;;;;;;;;;;5090778;28;20059;-71
2021/04/12 02:52:56;;;;;;;8.88;1.13;;;;;;;;;;5087030;28;20055;-70
2021/04/12 02:55:31;;;;;;;4.13;0.85;;;;;;;;;;5082758;28;20085;-70
2021/04/12 02:58:11;;;;;;;8.65;1.40;;;;;;;;;;5087189;28;20106;-70
2021/04/12 03:00:48;;;;;;;3.67;0.63;;;;;;;;;;5087227;28;20051;-70
2021/04/12 03:03:24;;;;;;;7.68;1.15;;;;;;;;;;5088905;28;20027;-70
2021/04/12 03:06:08;;;;;;;5.93;1.13;;;;;;;;;;5087372;28;20036;-70
2021/04/12 03:08:53;;;;;;;6.43;0.88;;;;;;;;;;5086170;28;20375;-70
2021/04/12 03:11:35;;;;;;;21.25;1.92;;;;;;;;;;5083640;28;20033;-70
2021/04/12 03:14:01;;;;;;;5.80;0.80;;;;;;;;;;5090753;28;20020;-70
2021/04/12 03:16:39;;;;;;;4.43;0.90;;;;;;;;;;5091883;28;20501;-70
2021/04/12 03:19:17;;;;;;;9.07;1.02;;;;;;;;;;5081112;28;20555;-70
2021/04/12 03:22:02;;;;;;;10.48;1.15;;;;;;;;;;5089006;28;20490;-70
2021/04/12 03:24:28;;;;;;;10.05;1.17;;;;;;;;;;5075643;28;20016;-70
2021/04/12 03:26:57;;;;;;;7.47;1.30;;;;;;;;;;5089407;28;20020;-70
2021/04/12 03:29:42;;;;;;;11.35;1.35;;;;;;;;;;5087787;28;20081;-69
2021/04/12 03:32:11;;;;;;;17.15;2.75;;;;;;;;;;5086211;28;20024;-70
2021/04/12 03:34:57;;;;;;;11.32;1.73;;;;;;;;;;5090655;28;20031;-70
2021/04/12 03:37:31;;;;;;;10.15;2.90;;;;;;;;;;5076136;28;20039;-70
2021/04/12 03:40:00;;;;;;;6.13;1.45;;;;;;;;;;5088548;28;20039;-70
2021/04/12 03:42:44;;;;;;;12.00;1.83;;;;;;;;;;5091427;28;20036;-70
2021/04/12 03:45:16;;;;;;;6.68;1.33;;;;;;;;;;5074555;28;20033;-70
2021/04/12 03:47:48;;;;;;;7.18;1.50;;;;;;;;;;5089940;28;20509;-70
2021/04/12 03:50:14;;;;;;;7.72;1.73;;;;;;;;;;5078853;28;20043;-69
2021/04/12 03:52:59;;;;;;;16.23;1.98;;;;;;;;;;5090865;28;20489;-70
2021/04/12 03:55:44;;;;;;;12.43;1.40;;;;;;;;;;5086631;28;21598;-70
2021/04/12 03:58:19;;;;;;;5.57;1.70;;;;;;;;;;5076697;28;20466;-70
2021/04/12 04:00:54;;;;;;;8.65;1.67;;;;;;;;;;5087766;28;20032;-70
2021/04/12 04:03:20;;;;;;;8.40;1.25;;;;;;;;;;5088990;28;20114;-69
2021/04/12 04:05:50;;;;;;;11.75;1.35;;;;;;;;;;5089812;28;20027;-70
2021/04/12 04:08:35;;;;;;;12.98;1.60;;;;;;;;;;5089587;28;20035;-70
2021/04/12 04:11:04;;;;;;;8.68;1.35;;;;;;;;;;5081978;28;20036;-70
2021/04/12 04:13:33;;;;;;;7.63;1.08;;;;;;;;;;5086177;28;20426;-71
2021/04/12 04:16:02;;;;;;;8.50;1.98;;;;;;;;;;5090162;28;20142;-69
2021/04/12 04:18:58;;;;;;;9.93;1.70;;;;;;;;;;5088270;28;20051;-70
2021/04/12 04:21:34;;;;;;;16.05;2.05;;;;;;;;;;5034008;28;20036;-70
2021/04/12 04:24:03;;;;;;;7.75;1.58;;;;;;;;;;5082027;28;20031;-70
2021/04/12 04:26:38;;;;;;;14.95;2.33;;;;;;;;;;5083350;28;20035;-70
2021/04/12 04:29:11;;;;;;;8.27;1.70;;;;;;;;;;5083209;28;20032;-69
2021/04/12 04:31:55;;;;;;;9.57;2.00;;;;;;;;;;5087863;28;20043;-70
2021/04/12 04:34:40;;;;;;;4.72;2.00;;;;;;;;;;5081720;28;20481;-69
2021/04/12 04:37:21;;;;;;;10.48;2.38;;;;;;;;;;5080113;28;20027;-69
2021/04/12 04:39:47;;;;;;;8.77;1.77;;;;;;;;;;5087505;28;20027;-72
2021/04/12 04:42:32;;;;;;;6.30;1.50;;;;;;;;;;5090627;28;20031;-71
2021/04/12 04:45:13;;;;;;;6.13;1.48;;;;;;;;;;5082458;28;20036;-70
2021/04/12 04:47:56;;;;;;;4.82;1.20;;;;;;;;;;5082541;28;20036;-71
2021/04/12 04:50:26;;;;;;;5.40;1.42;;;;;;;;;;5083515;28;20020;-71
2021/04/12 04:53:05;;;;;;;4.07;1.50;;;;;;;;;;5090030;28;20032;-71
2021/04/12 04:55:40;;;;;;;4.82;1.42;;;;;;;;;;5079334;28;20020;-72
2021/04/12 04:58:26;;;;;;;4.47;1.42;;;;;;;;;;5075854;28;20020;-71
2021/04/12 05:01:01;;;;;;;6.47;1.77;;;;;;;;;;5085285;28;20059;-71
2021/04/12 05:03:46;;;;;;;6.57;1.27;;;;;;;;;;5082147;28;20077;-71
2021/04/12 05:06:12;;;;;;;6.30;1.27;;;;;;;;;;5086831;28;20035;-69
2021/04/12 05:08:57;;;;;;;11.55;2.33;;;;;;;;;;5087063;28;20017;-68
2021/04/12 05:11:41;;;;;;;8.25;1.92;;;;;;;;;;5079482;28;20029;-69
2021/04/12 05:14:19;;;;;;;10.25;1.80;;;;;;;;;;5089021;28;20055;-68
2021/04/12 05:17:00;;;;;;;12.43;1.83;;;;;;;;;;5089349;28;20518;-69
2021/04/12 05:19:32;;;;;;;16.50;3.45;;;;;;;;;;5090546;28;20020;-67
2021/04/12 05:21:58;;;;;;;8.15;3.13;;;;;;;;;;5092499;28;20565;-67
2021/04/12 05:24:43;;;;;;;12.65;2.38;;;;;;;;;;5091679;28;20577;-68
2021/04/12 05:27:45;;;;;;;11.48;2.63;;;;;;;;;;5080618;28;20028;-68
2021/04/12 05:30:20;;;;;;;12.43;2.90;;;;;;;;;;5007128;28;20615;-71
2021/04/12 05:32:52;;;;;;;13.50;2.60;;;;;;;;;;5081914;28;20300;-72
2021/04/12 05:35:26;;;;;;;13.93;2.15;;;;;;;;;;5088081;28;20103;-71
2021/04/12 05:38:10;;;;;;;11.82;2.78;;;;;;;;;;5089844;28;20107;-71
2021/04/12 05:40:55;;;;;;;17.33;2.58;;;;;;;;;;5087287;28;20031;-71
2021/04/12 05:43:39;;;;;;;8.38;2.17;;;;;;;;;;5084336;28;20023;-71
2021/04/12 05:46:05;;;;;;;9.30;2.88;;;;;;;;;;5089432;28;20043;-72
2021/04/12 05:48:47;;;;;;;16.45;5.63;;;;;;;;;;5093546;28;20032;-71
2021/04/12 05:51:13;;;;;;;;;;;;;;;;;;5088431;28;20027;-71
2021/04/12 05:53:39;;;;;;;8.57;1.92;;;;;;;;;;5090248;28;20325;-72
2021/04/12 05:56:24;;;;;;;9.93;2.40;;;;;;;;;;5092240;28;20086;-71
2021/04/12 05:59:09;;;;;;;10.23;2.13;;;;;;;;;;5086981;28;20024;-71
2021/04/12 06:01:47;;;;;;;10.85;3.45;;;;;;;;;;5089398;28;20086;-71
2021/04/12 06:04:16;;;;;;;13.18;2.33;;;;;;;;;;5084497;28;20509;-71
2021/04/12 06:06:54;;;;;;;5.45;1.95;;;;;;;;;;5091066;28;20020;-71
2021/04/12 06:09:30;;;;;;;9.45;2.40;;;;;;;;;;5082812;28;20024;-71
2021/04/12 06:12:15;;;;;;;9.02;2.38;;;;;;;;;;5084687;28;20021;-71
2021/04/12 06:15:00;;;;;;;14.27;3.15;;;;;;;;;;5076019;28;20124;-71
2021/04/12 06:17:26;;;;;;;9.80;2.60;;;;;;;;;;5077954;28;20135;-71
2021/04/12 06:20:04;;;;;;;7.70;2.53;;;;;;;;;;5082687;28;20077;-72
2021/04/12 06:22:53;;;;;;;9.63;2.67;;;;;;;;;;5086908;28;20501;-70
2021/04/12 06:25:35;;;;;;;9.02;2.50;;;;;;;;;;5067639;28;20064;-71
2021/04/12 06:28:21;;;;;;;9.02;2.92;;;;;;;;;;5088698;28;20035;-69
2021/04/12 06:31:06;;;;;;;6.10;2.92;;;;;;;;;;5085489;28;20016;-71
2021/04/12 06:33:44;;;;;;;9.18;2.92;;;;;;;;;;5089909;28;20459;-71
2021/04/12 06:36:25;;;;;;;12.68;3.83;;;;;;;;;;5084690;28;20438;-71
2021/04/12 06:39:10;;;;;;;12.13;3.00;;;;;;;;;;5082894;28;20031;-72
2021/04/12 06:41:55;;;;;;;14.40;4.25;;;;;;;;;;5083962;28;20024;-72
2021/04/12 06:44:40;;;;;;;11.27;4.22;;;;;;;;;;5081988;28;20032;-71
2021/04/12 06:47:25;;;;;;;9.93;4.72;;;;;;;;;;5088771;28;20470;-71
2021/04/12 06:50:00;;;;;;;8.93;4.05;;;;;;;;;;5084711;28;20072;-70
2021/04/12 06:52:45;;;;;;;11.73;5.38;;;;;;;;;;5082810;28;20274;-71
2021/04/12 06:55:18;;;;;;;9.32;3.33;;;;;;;;;;5088153;28;20149;-71
2021/04/12 06:57:47;;;;;;;9.70;4.40;;;;;;;;;;5086473;28;20215;-71
2021/04/12 07:00:19;;;;;;;10.35;4.07;;;;;;;;;;5083932;28;20032;-71
2021/04/12 07:03:00;;;;;;;10.02;4.85;;;;;;;;;;5085302;28;20047;-71
2021/04/12 07:05:53;;;;;;;9.73;4.55;;;;;;;;;;5086444;28;20028;-70
2021/04/12 07:08:38;;;;;;;9.23;4.03;;;;;;;;;;5088178;28;20055;-71
2021/04/12 07:11:10;;;;;;;10.90;5.40;;;;;;;;;;5087606;28;20069;-71
2021/04/12 07:13:36;;;;;;;;;;;;;;;;;;5085103;28;20031;-70
2021/04/12 07:16:05;;;;;;;7.13;3.30;;;;;;;;;;5087934;28;19950;-71
2021/04/12 07:18:46;;;;;;;7.10;2.13;;;;;;;;;;5086016;28;20106;-71
2021/04/12 07:21:20;;;;;;;5.88;1.42;;;;;;;;;;5082519;28;20114;-71
2021/04/12 07:23:46;;;;;;;3.28;1.33;;;;;;;;;;5082127;28;20032;-70
2021/04/12 07:26:31;;;;;;;6.43;1.30;;;;;;;;;;5086734;28;20020;-70
2021/04/12 07:29:03;;;;;;;2.97;0.95;;;;;;;;;;5081929;28;20208;-70
2021/04/12 07:31:42;;;;;;;5.00;1.70;;;;;;;;;;5077636;28;20537;-72
2021/04/12 07:34:25;;;;;;;5.15;2.13;;;;;;;;;;5075990;28;20064;-71
2021/04/12 07:37:10;;;;;;;3.85;1.90;;;;;;;;;;5074164;28;20028;-71
2021/04/12 07:39:54;;;;;;;5.82;1.98;;;;;;;;;;5069763;28;20040;-72
2021/04/12 07:42:39;;;;;;;6.03;1.98;;;;;;;;;;5074675;28;20035;-72
2021/04/12 07:45:24;;;;;;;4.95;1.95;;;;;;;;;;5086403;28;20081;-72
2021/04/12 07:48:22;;;;;;;5.40;2.35;;;;;;;;;;5080636;28;20024;-72
2021/04/12 07:51:07;;;;;;;6.03;2.35;;;;;;;;;;5036378;28;20075;-70
2021/04/12 07:53:33;;;;;;;4.65;1.70;;;;;;;;;;5083595;28;20036;-72
2021/04/12 07:55:59;;;;;;;4.90;2.15;;;;;;;;;;5086562;28;20032;-71
2021/04/12 07:58:34;;;;;;;5.03;1.73;;;;;;;;;;5083314;28;20028;-71
2021/04/12 08:01:19;;;;;;;8.27;2.47;;;;;;;;;;5080867;28;20020;-72
2021/04/12 08:03:45;;;;;;;7.22;2.65;;;;;;;;;;5083472;28;20107;-72
2021/04/12 08:06:29;;;;;;;7.50;2.92;;;;;;;;;;5081291;28;20035;-72
2021/04/12 08:09:14;;;;;;;8.55;2.63;;;;;;;;;;5076365;28;20296;-71
2021/04/12 08:12:07;;;;;;;10.95;3.80;;;;;;;;;;5077963;28;20032;-71
2021/04/12 08:14:33;;;;;;;8.07;3.92;;;;;;;;;;5078902;28;20024;-71
2021/04/12 08:17:02;;;;;;;16.73;5.75;;;;;;;;;;5079865;28;20437;-71
2021/04/12 08:19:42;;;;;;;7.10;3.90;;;;;;;;;;5083107;28;20077;-72
2021/04/12 08:22:17;;;;;;;8.05;4.47;;;;;;;;;;5084600;28;20035;-72
2021/04/12 08:24:46;;;;;;;12.55;5.30;;;;;;;;;;5079568;28;20073;-70
2021/04/12 08:27:18;;;;;;;9.27;4.30;;;;;;;;;;5084211;28;20024;-70
2021/04/12 08:30:03;;;;;;;8.40;4.78;;;;;;;;;;5074379;28;20028;-71
2021/04/12 08:32:35;;;;;;;9.77;5.20;;;;;;;;;;5081716;28;20031;-70
2021/04/12 08:35:20;;;;;;;9.90;5.07;;;;;;;;;;5081846;28;20390;-70
2021/04/12 08:38:05;;;;;;;17.20;4.85;;;;;;;;;;5086123;28;20069;-71
2021/04/12 08:40:46;;;;;;;12.40;4.40;;;;;;;;;;5081735;28;20043;-71
2021/04/12 08:43:18;;;;;;;17.07;7.10;;;;;;;;;;5087564;28;20023;-69
2021/04/12 08:45:44;;;;;;;;;;;;;;;;;;5077462;28;20059;-71
2021/04/12 08:48:13;;;;;;;15.40;6.18;;;;;;;;;;5083187;28;19962;-71
2021/04/12 08:50:39;;;;;;;13.93;6.78;;;;;;;;;;5078820;28;20028;-71
2021/04/12 08:53:17;;;;;;;10.50;6.10;;;;;;;;;;5083580;28;20027;-71
2021/04/12 08:55:56;;;;;;;11.13;6.63;;;;;;;;;;5082305;28;20043;-72
2021/04/12 08:58:22;;;;;;;13.23;6.18;;;;;;;;;;5086328;28;20111;-71
2021/04/12 09:01:07;;;;;;;9.35;5.60;;;;;;;;;;5080154;28;20028;-71
2021/04/12 09:03:51;;;;;;;11.50;4.60;;;;;;;;;;5085252;28;20024;-72
2021/04/12 09:06:40;;;;;;;10.52;5.10;;;;;;;;;;5085146;28;20032;-71
2021/04/12 09:09:12;;;;;;;13.15;5.50;;;;;;;;;;5078423;28;20016;-71
2021/04/12 09:11:57;;;;;;;12.35;5.20;;;;;;;;;;5084163;28;20024;-71
2021/04/12 09:14:42;;;;;;;10.00;5.18;;;;;;;;;;5080362;28;21402;-70
2021/04/12 09:17:08;;;;;;;11.38;4.78;;;;;;;;;;5076298;28;20136;-70
2021/04/12 09:19:37;;;;;;;10.52;4.75;;;;;;;;;;5076444;28;20119;-69
2021/04/12 09:22:12;;;;;;;11.43;5.10;;;;;;;;;;5078436;28;20024;-69
2021/04/12 09:24:57;;;;;;;11.85;5.35;;;;;;;;;;5076448;28;20024;-69
2021/04/12 09:27:29;;;;;;;10.43;4.93;;;;;;;;;;5079823;28;20028;-70
2021/04/12 09:29:55;;;;;;;;;;;;;;;;;;5077938;28;20036;-71
2021/04/12 09:32:46;;;;;;;12.50;4.57;;;;;;;;;;5080379;28;19943;-72
2021/04/12 09:35:24;;;;;;;9.43;5.13;;;;;;;;;;5082323;28;20024;-71
2021/04/12 09:38:13;;;;;;;11.10;4.47;;;;;;;;;;5076096;28;20402;-71
2021/04/12 09:40:39;;;;;;;9.10;4.68;;;;;;;;;;5076501;28;20035;-70
2021/04/12 09:43:08;;;;;;;8.90;4.50;;;;;;;;;;5090897;28;20040;-70
2021/04/12 09:45:43;;;;;;;8.88;4.13;;;;;;;;;;5081080;28;20028;-71
2021/04/12 09:48:19;;;;;;;10.07;4.00;;;;;;;;;;5079800;28;20573;-69
2021/04/12 09:50:53;;;;;;;11.63;5.53;;;;;;;;;;5083159;28;20047;-70
2021/04/12 09:53:25;;;;;;;10.50;5.55;;;;;;;;;;5082703;28;20095;-69
2021/04/12 09:55:51;;;;;;;8.85;5.32;;;;;;;;;;5082407;28;20517;-70
2021/04/12 09:58:36;;;;;;;9.77;4.95;;;;;;;;;;5081586;28;20024;-70
2021/04/12 10:01:12;;;;;;;9.88;4.68;;;;;;;;;;5073811;28;20031;-68
2021/04/12 10:03:53;;;;;;;14.85;5.38;;;;;;;;;;5087669;28;20020;-69
2021/04/12 10:06:37;;;;;;;13.18;5.60;;;;;;;;;;5083966;28;20028;-69
2021/04/12 10:09:06;;;;;;;9.43;4.88;;;;;;;;;;5078724;28;20019;-70
2021/04/12 10:11:52;;;;;;;7.68;4.65;;;;;;;;;;5083271;28;20031;-69
2021/04/12 10:14:20;;;;;;;11.80;5.70;;;;;;;;;;5082712;28;20036;-69
2021/04/12 10:16:58;;;;;;;9.80;5.93;;;;;;;;;;5084284;28;21126;-70
2021/04/12 10:19:29;;;;;;;17.67;5.35;;;;;;;;;;5078034;28;20039;-68
2021/04/12 10:22:02;;;;;;;10.82;4.70;;;;;;;;;;5083431;28;20059;-68
2021/04/12 10:24:28;;;;;;;8.65;5.40;;;;;;;;;;5080483;28;20541;-69
2021/04/12 10:26:57;;;;;;;9.52;4.70;;;;;;;;;;5081896;28;20016;-69
2021/04/12 10:29:23;;;;;;;10.52;5.95;;;;;;;;;;5078237;28;20094;-70
2021/04/12 10:31:54;;;;;;;9.50;6.15;;;;;;;;;;5079548;28;20089;-68
2021/04/12 10:34:24;;;;;;;12.50;6.47;;;;;;;;;;5086441;28;20547;-69
2021/04/12 10:37:05;;;;;;;10.32;5.50;;;;;;;;;;5081958;28;20642;-71
2021/04/12 10:39:31;;;;;;;14.95;5.90;;;;;;;;;;5078081;28;20047;-70
2021/04/12 10:42:05;;;;;;;8.90;5.03;;;;;;;;;;5081122;28;20123;-71
2021/04/12 10:44:44;;;;;;;8.05;5.15;;;;;;;;;;5082649;28;20034;-70
2021/04/12 10:47:11;;;;;;;9.23;5.65;;;;;;;;;;5081721;28;20583;-70
2021/04/12 10:49:56;;;;;;;9.68;5.13;;;;;;;;;;5077823;28;20032;-70
2021/04/12 10:52:22;;;;;;;13.73;6.50;;;;;;;;;;5083781;28;20513;-70
2021/04/12 10:54:51;;;;;;;9.85;4.95;;;;;;;;;;5083725;28;20514;-69
2021/04/12 10:57:20;;;;;;;10.48;5.78;;;;;;;;;;5085832;28;20577;-69
2021/04/12 10:59:52;;;;;;;12.27;5.85;;;;;;;;;;5076628;28;20089;-70
2021/04/12 11:02:21;;;;;;;10.07;4.60;;;;;;;;;;5089823;28;20017;-69
2021/04/12 11:04:53;;;;;;;12.73;5.00;;;;;;;;;;5074008;28;20032;-71
2021/04/12 11:07:21;;;;;;;9.75;4.95;;;;;;;;;;5082487;28;20390;-70
2021/04/12 11:09:54;;;;;;;9.43;4.30;;;;;;;;;;5083000;28;20486;-69
2021/04/12 11:12:29;;;;;;;9.57;4.55;;;;;;;;;;5082767;28;20361;-69
2021/04/12 11:15:01;;;;;;;12.15;5.63;;;;;;;;;;5085237;28;20101;-70
2021/04/12 11:17:40;;;;;;;9.95;4.40;;;;;;;;;;5084829;28;20105;-70
2021/04/12 11:20:24;;;;;;;14.73;5.55;;;;;;;;;;5088446;28;20033;-71
2021/04/12 11:22:56;;;;;;;8.93;5.13;;;;;;;;;;5086264;28;20480;-70
2021/04/12 11:25:28;;;;;;;11.13;4.72;;;;;;;;;;5084952;28;20375;-70
2021/04/12 11:28:16;;;;;;;10.88;4.85;;;;;;;;;;5083078;28;20047;-70
2021/04/12 11:30:54;;;;;;;8.57;4.45;;;;;;;;;;5085363;28;20490;-68
2021/04/12 11:33:40;;;;;;;6.47;3.65;;;;;;;;;;5084688;28;20077;-71
2021/04/12 11:36:10;;;;;;;8.52;3.97;;;;;;;;;;5080033;28;20074;-69
2021/04/12 11:38:56;;;;;;;6.40;3.88;;;;;;;;;;5080270;28;20032;-71
2021/04/12 11:41:25;;;;;;;9.65;4.68;;;;;;;;;;5084677;27;20493;-70
2021/04/12 11:43:55;;;;;;;11.00;4.55;;;;;;;;;;5087612;28;20028;-71
2021/04/12 11:46:24;;;;;;;11.40;4.47;;;;;;;;;;5091489;28;20032;-71
2021/04/12 11:49:01;;;;;;;8.75;4.07;;;;;;;;;;5079119;28;20062;-71
2021/04/12 11:51:52;;;;;;;10.40;4.28;;;;;;;;;;5089227;28;20054;-70
2021/04/12 11:54:26;;;;;;;7.57;3.47;;;;;;;;;;5083738;28;20157;-70
2021/04/12 11:57:05;;;;;;;6.38;3.45;;;;;;;;;;5089374;28;20020;-70
2021/04/12 11:59:47;;;;;;;7.03;3.40;;;;;;;;;;5081619;28;20486;-71
2021/04/12 12:02:18;;;;;;;7.80;3.60;;;;;;;;;;5089810;28;20032;-70
2021/04/12 12:04:53;;;;;;;8.35;3.88;;;;;;;;;;5088060;28;20035;-70
2021/04/12 12:07:45;;;;;;;8.43;3.92;;;;;;;;;;5083593;28;20024;-71
2021/04/12 12:10:34;;;;;;;11.02;3.67;;;;;;;;;;5036439;28;20040;-71
2021/04/12 12:13:19;;;;;;;9.82;3.92;;;;;;;;;;5072693;28;21125;-70
2021/04/12 12:16:00;;;;;;;8.68;3.00;;;;;;;;;;5083734;28;20024;-71
2021/04/12 12:18:31;;;;;;;9.00;3.50;;;;;;;;;;5085569;28;20050;-71
2021/04/12 12:21:07;;;;;;;6.00;2.88;;;;;;;;;;5086376;28;20478;-71
2021/04/12 12:23:42;;;;;;;7.03;3.08;;;;;;;;;;5083242;28;20110;-71
2021/04/12 12:26:11;;;;;;;6.07;2.60;;;;;;;;;;5083161;28;20043;-70
2021/04/12 12:28:43;;;;;;;8.82;3.97;;;;;;;;;;5080654;28;20031;-71
2021/04/12 12:33:57;;;;;;;7.38;3.63;;;;;;;;;;5086131;28;20081;-71
2021/04/12 12:36:40;;;;;;;9.43;2.97;;;;;;;;;;5083662;28;20012;-71
2021/04/12 12:39:11;;;;;;;11.15;3.25;;;;;;;;;;5077518;28;20124;-71
2021/04/12 12:41:41;;;;;;;7.80;3.10;;;;;;;;;;5086701;28;20124;-71
2021/04/12 12:44:09;;;;;;;6.32;2.88;;;;;;;;;;5079843;28;20047;-70
2021/04/12 12:46:37;;;;;;;7.90;2.80;;;;;;;;;;5084788;28;20035;-70
2021/04/12 12:49:12;;;;;;;7.53;3.05;;;;;;;;;;5081078;28;20028;-71
2021/04/12 12:51:48;;;;;;;5.93;2.53;;;;;;;;;;5077309;28;20043;-70
2021/04/12 12:54:16;;;;;;;7.63;2.67;;;;;;;;;;5076749;28;20040;-70
2021/04/12 12:56:43;;;;;;;5.75;2.65;;;;;;;;;;5081284;28;20254;-70
2021/04/12 12:59:09;;;;;;;7.50;2.47;;;;;;;;;;5084697;28;20023;-71
2021/04/12 13:01:37;;;;;;;8.07;3.22;;;;;;;;;;5083317;28;20418;-71
2021/04/12 13:04:09;;;;;;;6.38;2.88;;;;;;;;;;5080640;28;20032;-71
2021/04/12 13:06:36;;;;;;;5.82;2.97;;;;;;;;;;5087784;28;20020;-71
2021/04/12 13:09:04;;;;;;;9.15;2.90;;;;;;;;;;5073434;28;20021;-71
2021/04/12 13:11:44;;;;;;;8.55;3.53;;;;;;;;;;5078049;28;20056;-71
2021/04/12 13:14:27;;;;;;;10.10;3.67;;;;;;;;;;5076228;28;20509;-70
2021/04/12 13:16:54;;;;;;;6.63;3.10;;;;;;;;;;5078124;28;20416;-70
2021/04/12 13:19:20;;;;;;;9.35;3.90;;;;;;;;;;5073854;28;20442;-71
2021/04/12 13:21:51;;;;;;;9.15;3.30;;;;;;;;;;5078546;28;20119;-69
2021/04/12 13:24:35;;;;;;;8.73;3.03;;;;;;;;;;5074889;28;20629;-71
2021/04/12 13:27:01;;;;;;;6.82;3.05;;;;;;;;;;5077527;28;20036;-71
2021/04/12 13:29:30;;;;;;;7.22;2.10;;;;;;;;;;5075083;28;20032;-70
2021/04/12 13:31:58;;;;;;;6.07;2.97;;;;;;;;;;5076682;28;20020;-73
2021/04/12 13:34:31;;;;;;;9.32;3.28;;;;;;;;;;5077025;28;20567;-70
2021/04/12 13:37:00;;;;;;;10.40;2.97;;;;;;;;;;5076502;28;20063;-71
2021/04/12 13:39:32;;;;;;;5.97;2.85;;;;;;;;;;5080366;28;20069;-71
2021/04/12 13:42:00;;;;;;;10.80;3.25;;;;;;;;;;5083040;28;20016;-70
2021/04/12 13:44:27;;;;;;;6.90;3.55;;;;;;;;;;5081735;28;20397;-72
2021/04/12 13:46:57;;;;;;;7.43;3.35;;;;;;;;;;5081229;28;20371;-71
2021/04/12 13:49:44;;;;;;;11.02;4.32;;;;;;;;;;5078097;28;20023;-72
2021/04/12 13:52:18;;;;;;;9.55;3.55;;;;;;;;;;5080809;28;20482;-71
2021/04/12 13:54:47;;;;;;;8.70;4.07;;;;;;;;;;5079210;28;20521;-69
2021/04/12 13:57:20;;;;;;;7.93;3.97;;;;;;;;;;5080400;28;20847;-68
2021/04/12 13:59:55;;;;;;;10.48;3.60;;;;;;;;;;5077432;28;20023;-68
2021/04/12 14:02:27;;;;;;;8.98;4.65;;;;;;;;;;5080898;28;20490;-69
2021/04/12 14:05:00;;;;;;;9.60;4.30;;;;;;;;;;5079287;28;20580;-68
2021/04/12 14:07:47;;;;;;;8.10;4.38;;;;;;;;;;5080609;28;20028;-69
2021/04/12 14:10:13;;;;;;;10.57;4.80;;;;;;;;;;5079604;28;20029;-69
2021/04/12 14:12:39;;;;;;;10.95;4.68;;;;;;;;;;5079851;28;20088;-68
2021/04/12 14:15:10;;;;;;;9.70;4.63;;;;;;;;;;5081027;28;20033;-69
2021/04/12 14:17:41;;;;;;;9.95;5.28;;;;;;;;;;5081230;28;20074;-69
2021/04/12 14:20:10;;;;;;;9.05;4.93;;;;;;;;;;5079197;28;20028;-67
2021/04/12 14:22:45;;;;;;;12.18;4.82;;;;;;;;;;5080898;28;20028;-68
2021/04/12 14:25:11;;;;;;;11.98;5.13;;;;;;;;;;5078829;28;20097;-68
2021/04/12 14:27:38;;;;;;;9.00;4.45;;;;;;;;;;5090511;28;20078;-68
2021/04/12 14:30:09;;;;;;;8.65;5.22;;;;;;;;;;5085483;28;20055;-68
2021/04/12 14:33:11;;;;;;;11.65;4.47;;;;;;;;;;5082279;28;20437;-68
2021/04/12 14:35:42;;;;;;;14.23;4.93;;;;;;;;;;5004415;28;20073;-70
2021/04/12 14:38:21;;;;;;;10.00;4.35;;;;;;;;;;5069835;28;20098;-67
2021/04/12 14:40:52;;;;;;;9.23;4.68;;;;;;;;;;5080877;28;20040;-67
2021/04/12 14:43:36;;;;;;;8.38;4.45;;;;;;;;;;5086240;28;20044;-70
2021/04/12 14:46:12;;;;;;;12.27;4.95;;;;;;;;;;5081991;28;20501;-68
2021/04/12 14:48:50;;;;;;;9.02;4.47;;;;;;;;;;5091541;28;20031;-69
2021/04/12 14:51:21;;;;;;;9.65;4.55;;;;;;;;;;5084786;28;20053;-68
2021/04/12 14:53:51;;;;;;;9.27;5.10;;;;;;;;;;5088621;28;20036;-69
2021/04/12 14:56:30;;;;;;;10.73;4.93;;;;;;;;;;5085585;28;20025;-68
2021/04/12 14:58:56;;;;;;;8.95;4.38;;;;;;;;;;5087249;28;20605;-69
2021/04/12 15:01:25;;;;;;;13.20;3.83;;;;;;;;;;5088137;28;20098;-67
2021/04/12 15:03:54;;;;;;;9.43;3.70;;;;;;;;;;5081211;28;20047;-67
2021/04/12 15:06:23;;;;;;;9.25;4.20;;;;;;;;;;5089451;28;20055;-68
2021/04/12 15:08:51;;;;;;;8.65;4.18;;;;;;;;;;5081177;28;20107;-68
2021/04/12 15:11:29;;;;;;;8.98;3.83;;;;;;;;;;5085656;28;20076;-67
2021/04/12 15:14:07;;;;;;;10.77;3.75;;;;;;;;;;5086871;28;20031;-66
2021/04/12 15:16:33;;;;;;;8.18;3.42;;;;;;;;;;5090394;28;20040;-68
2021/04/12 15:19:15;;;;;;;10.43;3.28;;;;;;;;;;5084729;28;20028;-68
2021/04/12 15:21:48;;;;;;;6.05;2.97;;;;;;;;;;5086222;28;20127;-68
2021/04/12 15:24:18;;;;;;;5.30;2.20;;;;;;;;;;5074825;28;20024;-67
2021/04/12 15:26:46;;;;;;;5.30;2.60;;;;;;;;;;5076387;28;20028;-66
2021/04/12 15:29:23;;;;;;;6.03;3.00;;;;;;;;;;5083196;28;20027;-67
2021/04/12 15:32:09;;;;;;;8.02;3.40;;;;;;;;;;5087587;28;20034;-68
2021/04/12 15:34:38;;;;;;;6.50;3.00;;;;;;;;;;5050936;28;20028;-68